Weather at Kincardine (South Bruce Grey Health Centre Hospital) Heliport

Public forecast

Using degrees Celsius for public forecast. Weather courtesy of forecast.io.

Closest aviation weather report (METAR) to Kincardine (South Bruce Grey Health Centre Hospital) Heliport

Closest report is Wiarton Airport, 40.2 nm (74.4 km) NNE. Retrieved 2021/06/22 16:00 UTC (27 minutes ago):

CYVV 221600Z 27006KT 240V300 15SM BKN030 13/06 A2993 RMK SC5 SLP141

Closest aviation forecast (TAF) to Kincardine (South Bruce Grey Health Centre Hospital) Heliport

Closest forecast is Wiarton Airport, 40.2 nm (74.4 km) NNE. Retrieved 2021/06/22 14:00 UTC (2 hours ago):

TAF CYVV 221346Z 2214/2223 VRB03KT P6SM FEW012 SCT030 BECMG 2214/2216 27010KT FM222100 27008KT P6SM FEW050 BKN120 RMK NXT FCST BY 222000Z